sensor_id;sensor_type;location;lat;lon;timestamp;pressure;altitude;pressure_sealevel;temperature;humidity
55755;BME280;41674;52.290;-1.474;2023-01-29T00:00:10;102436.38;;;7.21;72.98
55755;BME280;41674;52.290;-1.474;2023-01-29T00:02:38;102438.14;;;6.28;75.93
55755;BME280;41674;52.290;-1.474;2023-01-29T00:05:07;102432.58;;;6.61;74.37
55755;BME280;41674;52.290;-1.474;2023-01-29T00:07:36;102432.53;;;6.14;75.24
55755;BME280;41674;52.290;-1.474;2023-01-29T00:10:06;102432.16;;;7.38;73.69
55755;BME280;41674;52.290;-1.474;2023-01-29T00:12:35;102433.83;;;7.26;73.25
55755;BME280;41674;52.290;-1.474;2023-01-29T00:15:06;102432.49;;;5.98;75.91
55755;BME280;41674;52.290;-1.474;2023-01-29T00:17:34;102434.70;;;6.42;77.64
55755;BME280;41674;52.290;-1.474;2023-01-29T00:20:05;102438.09;;;6.14;77.72
55755;BME280;41674;52.290;-1.474;2023-01-29T00:22:34;102438.90;;;6.38;78.19
55755;BME280;41674;52.290;-1.474;2023-01-29T00:25:04;102437.51;;;5.79;79.27
55755;BME280;41674;52.290;-1.474;2023-01-29T00:27:33;102433.89;;;5.69;79.60
55755;BME280;41674;52.290;-1.474;2023-01-29T00:30:03;102425.85;;;6.20;78.33
55755;BME280;41674;52.290;-1.474;2023-01-29T00:32:32;102424.14;;;6.16;78.37
55755;BME280;41674;52.290;-1.474;2023-01-29T00:35:02;102426.53;;;6.55;76.97
55755;BME280;41674;52.290;-1.474;2023-01-29T00:37:36;102434.96;;;5.96;78.68
55755;BME280;41674;52.290;-1.474;2023-01-29T00:40:00;102438.09;;;5.52;80.91
55755;BME280;41674;52.290;-1.474;2023-01-29T00:42:30;102439.53;;;5.49;81.21
55755;BME280;41674;52.290;-1.474;2023-01-29T00:44:59;102437.45;;;6.28;78.03
55755;BME280;41674;52.290;-1.474;2023-01-29T00:47:29;102441.37;;;5.78;79.14
55755;BME280;41674;52.290;-1.474;2023-01-29T00:49:59;102442.94;;;6.21;77.71
55755;BME280;41674;52.290;-1.474;2023-01-29T00:52:30;102438.77;;;6.53;72.59
55755;BME280;41674;52.290;-1.474;2023-01-29T00:55:02;102439.47;;;5.77;74.15
55755;BME280;41674;52.290;-1.474;2023-01-29T00:57:32;102442.30;;;5.52;75.57
55755;BME280;41674;52.290;-1.474;2023-01-29T01:00:02;102445.01;;;5.17;75.21
55755;BME280;41674;52.290;-1.474;2023-01-29T01:02:31;102443.07;;;6.89;69.45
55755;BME280;41674;52.290;-1.474;2023-01-29T01:05:01;102444.07;;;7.19;69.68
55755;BME280;41674;52.290;-1.474;2023-01-29T01:07:31;102440.83;;;6.82;68.60
55755;BME280;41674;52.290;-1.474;2023-01-29T01:10:01;102437.84;;;6.14;72.66
55755;BME280;41674;52.290;-1.474;2023-01-29T01:12:32;102435.68;;;6.20;73.14
55755;BME280;41674;52.290;-1.474;2023-01-29T01:15:01;102434.41;;;5.23;77.09
55755;BME280;41674;52.290;-1.474;2023-01-29T01:17:31;102431.45;;;5.58;75.65
55755;BME280;41674;52.290;-1.474;2023-01-29T01:20:01;102429.06;;;6.05;74.44
55755;BME280;41674;52.290;-1.474;2023-01-29T01:22:31;102431.39;;;4.90;76.88
55755;BME280;41674;52.290;-1.474;2023-01-29T01:25:00;102426.37;;;5.36;75.29
55755;BME280;41674;52.290;-1.474;2023-01-29T01:27:30;102423.72;;;5.03;75.14
55755;BME280;41674;52.290;-1.474;2023-01-29T01:30:00;102416.21;;;4.68;77.48
55755;BME280;41674;52.290;-1.474;2023-01-29T01:34:59;102404.98;;;6.50;70.38
55755;BME280;41674;52.290;-1.474;2023-01-29T01:37:29;102407.66;;;5.12;73.87
55755;BME280;41674;52.290;-1.474;2023-01-29T01:39:59;102397.93;;;7.20;68.17
55755;BME280;41674;52.290;-1.474;2023-01-29T01:42:29;102389.08;;;8.46;63.47
55755;BME280;41674;52.290;-1.474;2023-01-29T01:45:00;102383.64;;;8.58;62.64
55755;BME280;41674;52.290;-1.474;2023-01-29T01:47:31;102384.73;;;8.48;64.11
55755;BME280;41674;52.290;-1.474;2023-01-29T01:50:00;102384.60;;;7.92;66.12
55755;BME280;41674;52.290;-1.474;2023-01-29T01:54:55;102384.67;;;5.95;72.48
55755;BME280;41674;52.290;-1.474;2023-01-29T01:57:25;102378.16;;;6.69;71.74
55755;BME280;41674;52.290;-1.474;2023-01-29T01:59:58;102380.24;;;5.83;74.66
55755;BME280;41674;52.290;-1.474;2023-01-29T02:02:24;102378.62;;;5.87;74.19
55755;BME280;41674;52.290;-1.474;2023-01-29T02:04:53;102377.77;;;6.37;74.54
55755;BME280;41674;52.290;-1.474;2023-01-29T02:07:22;102370.86;;;6.48;73.16
55755;BME280;41674;52.290;-1.474;2023-01-29T02:09:55;102379.80;;;5.76;75.18
55755;BME280;41674;52.290;-1.474;2023-01-29T02:12:22;102378.07;;;5.42;77.35
55755;BME280;41674;52.290;-1.474;2023-01-29T02:14:51;102374.48;;;5.49;77.48
55755;BME280;41674;52.290;-1.474;2023-01-29T02:17:20;102366.84;;;4.78;79.91
55755;BME280;41674;52.290;-1.474;2023-01-29T02:19:56;102366.13;;;5.16;78.69
55755;BME280;41674;52.290;-1.474;2023-01-29T02:22:33;102364.50;;;5.09;80.02
55755;BME280;41674;52.290;-1.474;2023-01-29T02:25:01;102363.10;;;4.51;82.39
55755;BME280;41674;52.290;-1.474;2023-01-29T02:27:20;102362.14;;;4.12;84.00
55755;BME280;41674;52.290;-1.474;2023-01-29T02:29:55;102350.84;;;5.23;80.44
55755;BME280;41674;52.290;-1.474;2023-01-29T02:32:22;102347.92;;;5.40;78.47
55755;BME280;41674;52.290;-1.474;2023-01-29T02:34:56;102348.08;;;5.67;75.76
55755;BME280;41674;52.290;-1.474;2023-01-29T02:37:16;102343.80;;;5.76;75.77
55755;BME280;41674;52.290;-1.474;2023-01-29T02:39:50;102339.85;;;6.13;74.09
55755;BME280;41674;52.290;-1.474;2023-01-29T02:42:18;102341.79;;;5.70;75.63
55755;BME280;41674;52.290;-1.474;2023-01-29T02:44:47;102346.22;;;4.92;78.78
55755;BME280;41674;52.290;-1.474;2023-01-29T02:47:18;102343.14;;;4.64;80.13
55755;BME280;41674;52.290;-1.474;2023-01-29T02:49:47;102342.07;;;4.28;82.28
55755;BME280;41674;52.290;-1.474;2023-01-29T02:52:15;102336.17;;;4.41;82.17
55755;BME280;41674;52.290;-1.474;2023-01-29T02:54:45;102332.57;;;4.44;80.57
55755;BME280;41674;52.290;-1.474;2023-01-29T02:57:17;102327.78;;;4.00;82.49
55755;BME280;41674;52.290;-1.474;2023-01-29T02:59:44;102322.71;;;4.49;81.02
55755;BME280;41674;52.290;-1.474;2023-01-29T03:02:14;102320.28;;;4.31;81.44
55755;BME280;41674;52.290;-1.474;2023-01-29T03:04:43;102319.88;;;4.13;83.10
55755;BME280;41674;52.290;-1.474;2023-01-29T03:07:14;102322.23;;;3.89;82.62
55755;BME280;41674;52.290;-1.474;2023-01-29T03:09:43;102318.60;;;3.92;84.46
55755;BME280;41674;52.290;-1.474;2023-01-29T03:12:12;102318.69;;;2.61;89.89
55755;BME280;41674;52.290;-1.474;2023-01-29T03:14:39;102310.64;;;3.16;87.67
55755;BME280;41674;52.290;-1.474;2023-01-29T03:17:07;102305.44;;;3.09;89.96
55755;BME280;41674;52.290;-1.474;2023-01-29T03:19:40;102306.94;;;3.32;87.53
55755;BME280;41674;52.290;-1.474;2023-01-29T03:22:08;102297.33;;;3.51;86.91
55755;BME280;41674;52.290;-1.474;2023-01-29T03:24:40;102299.53;;;3.13;88.70
55755;BME280;41674;52.290;-1.474;2023-01-29T03:27:08;102283.40;;;4.59;83.92
55755;BME280;41674;52.290;-1.474;2023-01-29T03:29:36;102283.88;;;4.96;79.99
55755;BME280;41674;52.290;-1.474;2023-01-29T03:32:04;102292.31;;;3.70;85.10
55755;BME280;41674;52.290;-1.474;2023-01-29T03:34:39;102281.64;;;4.44;81.64
55755;BME280;41674;52.290;-1.474;2023-01-29T03:37:06;102295.49;;;3.78;84.56
55755;BME280;41674;52.290;-1.474;2023-01-29T03:39:32;102289.60;;;3.96;83.20
55755;BME280;41674;52.290;-1.474;2023-01-29T03:42:12;102296.80;;;4.50;81.54
55755;BME280;41674;52.290;-1.474;2023-01-29T03:44:37;102288.95;;;3.87;82.69
55755;BME280;41674;52.290;-1.474;2023-01-29T03:47:07;102287.16;;;4.02;81.65
55755;BME280;41674;52.290;-1.474;2023-01-29T03:49:33;102287.47;;;5.04;79.55
55755;BME280;41674;52.290;-1.474;2023-01-29T03:52:03;102290.90;;;4.58;79.63
55755;BME280;41674;52.290;-1.474;2023-01-29T03:54:33;102288.18;;;4.28;81.41
55755;BME280;41674;52.290;-1.474;2023-01-29T03:56:59;102280.77;;;3.82;83.79
55755;BME280;41674;52.290;-1.474;2023-01-29T03:59:34;102280.32;;;2.99;87.07
55755;BME280;41674;52.290;-1.474;2023-01-29T04:01:59;102265.07;;;3.52;85.93
55755;BME280;41674;52.290;-1.474;2023-01-29T04:04:28;102257.41;;;3.67;84.42
55755;BME280;41674;52.290;-1.474;2023-01-29T04:06:59;102260.65;;;3.39;86.96
55755;BME280;41674;52.290;-1.474;2023-01-29T04:09:30;102254.33;;;4.20;84.25
55755;BME280;41674;52.290;-1.474;2023-01-29T04:11:59;102255.85;;;3.66;87.30
55755;BME280;41674;52.290;-1.474;2023-01-29T04:14:23;102251.94;;;3.42;87.97
55755;BME280;41674;52.290;-1.474;2023-01-29T04:16:54;102246.91;;;3.23;88.18
55755;BME280;41674;52.290;-1.474;2023-01-29T04:19:22;102246.65;;;3.32;87.69
55755;BME280;41674;52.290;-1.474;2023-01-29T04:22:03;102243.21;;;4.21;82.76
55755;BME280;41674;52.290;-1.474;2023-01-29T04:24:20;102251.54;;;3.26;85.82
55755;BME280;41674;52.290;-1.474;2023-01-29T04:26:57;102252.30;;;3.96;85.41
55755;BME280;41674;52.290;-1.474;2023-01-29T04:29:28;102250.86;;;4.31;82.86
55755;BME280;41674;52.290;-1.474;2023-01-29T04:32:06;102246.90;;;3.63;87.25
55755;BME280;41674;52.290;-1.474;2023-01-29T04:34:22;102256.07;;;4.77;82.69
55755;BME280;41674;52.290;-1.474;2023-01-29T04:36:55;102250.52;;;4.24;82.47
55755;BME280;41674;52.290;-1.474;2023-01-29T04:39:19;102245.36;;;3.84;85.83
55755;BME280;41674;52.290;-1.474;2023-01-29T04:41:52;102250.63;;;2.79;89.47
55755;BME280;41674;52.290;-1.474;2023-01-29T04:44:19;102240.86;;;3.66;88.12
55755;BME280;41674;52.290;-1.474;2023-01-29T04:46:48;102237.45;;;3.72;86.33
55755;BME280;41674;52.290;-1.474;2023-01-29T04:49:26;102225.11;;;3.60;86.59
55755;BME280;41674;52.290;-1.474;2023-01-29T04:51:50;102224.15;;;2.72;90.37
55755;BME280;41674;52.290;-1.474;2023-01-29T04:54:21;102208.11;;;3.53;89.57
55755;BME280;41674;52.290;-1.474;2023-01-29T04:56:51;102199.66;;;3.37;90.09
55755;BME280;41674;52.290;-1.474;2023-01-29T04:59:16;102193.66;;;4.68;85.64
55755;BME280;41674;52.290;-1.474;2023-01-29T05:01:43;102200.65;;;3.28;90.63
55755;BME280;41674;52.290;-1.474;2023-01-29T05:04:15;102194.60;;;3.96;89.50
55755;BME280;41674;52.290;-1.474;2023-01-29T05:06:42;102190.09;;;3.83;90.96
55755;BME280;41674;52.290;-1.474;2023-01-29T05:09:12;102191.85;;;3.79;91.87
55755;BME280;41674;52.290;-1.474;2023-01-29T05:11:41;102184.60;;;3.79;89.50
55755;BME280;41674;52.290;-1.474;2023-01-29T05:14:12;102187.13;;;3.01;93.71
55755;BME280;41674;52.290;-1.474;2023-01-29T05:16:42;102184.55;;;3.16;94.06
55755;BME280;41674;52.290;-1.474;2023-01-29T05:19:09;102179.81;;;3.34;93.95
55755;BME280;41674;52.290;-1.474;2023-01-29T05:21:39;102179.61;;;3.18;93.95
55755;BME280;41674;52.290;-1.474;2023-01-29T05:24:10;102172.74;;;3.45;92.75
55755;BME280;41674;52.290;-1.474;2023-01-29T05:26:38;102176.47;;;3.27;91.17
55755;BME280;41674;52.290;-1.474;2023-01-29T05:29:08;102189.08;;;2.24;97.56
55755;BME280;41674;52.290;-1.474;2023-01-29T05:31:37;102186.14;;;2.03;99.15
55755;BME280;41674;52.290;-1.474;2023-01-29T05:34:06;102176.03;;;2.11;100.00
55755;BME280;41674;52.290;-1.474;2023-01-29T05:36:35;102174.95;;;2.87;96.95
55755;BME280;41674;52.290;-1.474;2023-01-29T05:39:05;102170.00;;;2.36;98.91
55755;BME280;41674;52.290;-1.474;2023-01-29T05:41:34;102165.18;;;2.86;97.83
55755;BME280;41674;52.290;-1.474;2023-01-29T05:44:04;102162.20;;;2.74;95.83
55755;BME280;41674;52.290;-1.474;2023-01-29T05:46:34;102151.20;;;3.21;94.71
55755;BME280;41674;52.290;-1.474;2023-01-29T05:49:04;102147.42;;;3.18;95.64
55755;BME280;41674;52.290;-1.474;2023-01-29T05:51:33;102135.71;;;3.63;92.95
55755;BME280;41674;52.290;-1.474;2023-01-29T05:54:02;102134.42;;;3.94;91.68
55755;BME280;41674;52.290;-1.474;2023-01-29T05:56:31;102144.37;;;2.98;95.70
55755;BME280;41674;52.290;-1.474;2023-01-29T05:59:01;102144.64;;;3.14;97.64
55755;BME280;41674;52.290;-1.474;2023-01-29T06:01:31;102135.24;;;4.02;93.22
55755;BME280;41674;52.290;-1.474;2023-01-29T06:04:00;102143.31;;;2.94;97.03
55755;BME280;41674;52.290;-1.474;2023-01-29T06:06:29;102144.69;;;2.70;95.25
55755;BME280;41674;52.290;-1.474;2023-01-29T06:08:59;102139.29;;;3.66;94.66
55755;BME280;41674;52.290;-1.474;2023-01-29T06:11:28;102136.20;;;4.00;91.26
55755;BME280;41674;52.290;-1.474;2023-01-29T06:13:59;102124.65;;;3.99;86.73
55755;BME280;41674;52.290;-1.474;2023-01-29T06:16:31;102122.13;;;3.45;86.57
55755;BME280;41674;52.290;-1.474;2023-01-29T06:19:00;102123.10;;;3.58;85.10
55755;BME280;41674;52.290;-1.474;2023-01-29T06:21:30;102118.79;;;4.63;81.37
55755;BME280;41674;52.290;-1.474;2023-01-29T06:24:01;102125.73;;;5.07;77.61
55755;BME280;41674;52.290;-1.474;2023-01-29T06:26:32;102119.55;;;5.16;78.26
55755;BME280;41674;52.290;-1.474;2023-01-29T06:29:02;102120.02;;;5.70;76.46
55755;BME280;41674;52.290;-1.474;2023-01-29T06:31:31;102122.70;;;4.63;81.79
55755;BME280;41674;52.290;-1.474;2023-01-29T06:34:02;102124.85;;;5.23;79.46
55755;BME280;41674;52.290;-1.474;2023-01-29T06:36:32;102117.55;;;4.61;79.08
55755;BME280;41674;52.290;-1.474;2023-01-29T06:39:02;102110.61;;;5.54;76.38
55755;BME280;41674;52.290;-1.474;2023-01-29T06:41:31;102099.95;;;5.40;75.24
55755;BME280;41674;52.290;-1.474;2023-01-29T06:44:02;102103.26;;;4.10;81.58
55755;BME280;41674;52.290;-1.474;2023-01-29T06:46:32;102110.11;;;4.34;81.31
55755;BME280;41674;52.290;-1.474;2023-01-29T06:49:01;102114.55;;;4.57;78.95
55755;BME280;41674;52.290;-1.474;2023-01-29T06:51:32;102101.60;;;5.99;75.21
55755;BME280;41674;52.290;-1.474;2023-01-29T06:54:02;102106.20;;;4.70;77.36
55755;BME280;41674;52.290;-1.474;2023-01-29T06:56:33;102103.77;;;5.86;75.09
55755;BME280;41674;52.290;-1.474;2023-01-29T06:59:03;102108.76;;;4.81;76.18
55755;BME280;41674;52.290;-1.474;2023-01-29T07:01:33;102104.41;;;5.83;75.32
55755;BME280;41674;52.290;-1.474;2023-01-29T07:04:02;102106.05;;;5.69;77.69
55755;BME280;41674;52.290;-1.474;2023-01-29T07:06:33;102102.92;;;5.18;79.30
55755;BME280;41674;52.290;-1.474;2023-01-29T07:09:05;102102.62;;;4.87;81.73
55755;BME280;41674;52.290;-1.474;2023-01-29T07:11:34;102106.03;;;4.14;87.17
55755;BME280;41674;52.290;-1.474;2023-01-29T07:14:03;102111.04;;;3.76;88.69
55755;BME280;41674;52.290;-1.474;2023-01-29T07:16:33;102107.18;;;4.22;87.81
55755;BME280;41674;52.290;-1.474;2023-01-29T07:19:05;102103.08;;;4.76;83.92
55755;BME280;41674;52.290;-1.474;2023-01-29T07:21:34;102098.36;;;3.83;87.28
55755;BME280;41674;52.290;-1.474;2023-01-29T07:24:05;102099.38;;;5.06;82.89
55755;BME280;41674;52.290;-1.474;2023-01-29T07:26:34;102101.64;;;4.06;85.95
55755;BME280;41674;52.290;-1.474;2023-01-29T07:29:05;102099.60;;;3.85;88.78
55755;BME280;41674;52.290;-1.474;2023-01-29T07:34:06;102097.92;;;4.16;84.89
55755;BME280;41674;52.290;-1.474;2023-01-29T07:36:35;102093.25;;;5.86;77.59
55755;BME280;41674;52.290;-1.474;2023-01-29T07:39:05;102101.69;;;4.81;80.51
55755;BME280;41674;52.290;-1.474;2023-01-29T07:41:33;102092.05;;;4.88;84.51
55755;BME280;41674;52.290;-1.474;2023-01-29T07:44:03;102093.90;;;4.58;87.43
55755;BME280;41674;52.290;-1.474;2023-01-29T07:46:32;102097.32;;;4.29;90.64
55755;BME280;41674;52.290;-1.474;2023-01-29T07:49:02;102099.55;;;4.47;92.28
55755;BME280;41674;52.290;-1.474;2023-01-29T07:51:31;102093.55;;;4.12;95.20
55755;BME280;41674;52.290;-1.474;2023-01-29T07:54:00;102092.23;;;3.95;94.23
55755;BME280;41674;52.290;-1.474;2023-01-29T07:56:30;102097.02;;;3.92;97.04
55755;BME280;41674;52.290;-1.474;2023-01-29T07:58:59;102091.81;;;4.09;96.82
55755;BME280;41674;52.290;-1.474;2023-01-29T08:03:58;102089.74;;;3.80;97.83
55755;BME280;41674;52.290;-1.474;2023-01-29T08:08:58;102095.20;;;4.13;96.86
55755;BME280;41674;52.290;-1.474;2023-01-29T08:11:27;102092.26;;;3.20;100.00
55755;BME280;41674;52.290;-1.474;2023-01-29T08:13:59;102094.67;;;2.82;100.00
55755;BME280;41674;52.290;-1.474;2023-01-29T08:19:00;102088.08;;;3.09;97.98
55755;BME280;41674;52.290;-1.474;2023-01-29T08:21:30;102086.86;;;3.07;97.44
55755;BME280;41674;52.290;-1.474;2023-01-29T08:24:00;102087.34;;;3.53;94.23
55755;BME280;41674;52.290;-1.474;2023-01-29T08:26:31;102090.50;;;3.34;96.88
55755;BME280;41674;52.290;-1.474;2023-01-29T08:29:00;102082.18;;;4.15;92.10
55755;BME280;41674;52.290;-1.474;2023-01-29T08:31:31;102083.58;;;3.78;91.87
55755;BME280;41674;52.290;-1.474;2023-01-29T08:34:01;102086.51;;;4.02;93.03
55755;BME280;41674;52.290;-1.474;2023-01-29T08:36:31;102087.33;;;4.34;91.41
55755;BME280;41674;52.290;-1.474;2023-01-29T08:39:00;102080.95;;;4.03;93.02
55755;BME280;41674;52.290;-1.474;2023-01-29T08:41:30;102075.39;;;4.50;90.51
55755;BME280;41674;52.290;-1.474;2023-01-29T08:44:00;102077.43;;;4.12;93.31
55755;BME280;41674;52.290;-1.474;2023-01-29T08:46:32;102077.76;;;5.06;88.17
55755;BME280;41674;52.290;-1.474;2023-01-29T08:49:00;102079.73;;;4.11;90.55
55755;BME280;41674;52.290;-1.474;2023-01-29T08:51:29;102074.98;;;4.40;90.93
55755;BME280;41674;52.290;-1.474;2023-01-29T08:53:59;102076.59;;;3.81;94.10
55755;BME280;41674;52.290;-1.474;2023-01-29T08:56:30;102080.08;;;4.01;96.57
55755;BME280;41674;52.290;-1.474;2023-01-29T08:59:00;102078.30;;;3.98;95.85
55755;BME280;41674;52.290;-1.474;2023-01-29T09:01:30;102078.45;;;4.47;93.18
55755;BME280;41674;52.290;-1.474;2023-01-29T09:04:01;102079.20;;;5.53;88.56
55755;BME280;41674;52.290;-1.474;2023-01-29T09:06:30;102085.36;;;5.12;86.36
55755;BME280;41674;52.290;-1.474;2023-01-29T09:09:00;102090.92;;;5.43;85.77
55755;BME280;41674;52.290;-1.474;2023-01-29T09:14:01;102090.42;;;5.81;83.21
55755;BME280;41674;52.290;-1.474;2023-01-29T09:16:31;102094.92;;;4.94;87.30
55755;BME280;41674;52.290;-1.474;2023-01-29T09:19:01;102088.99;;;6.39;83.26
55755;BME280;41674;52.290;-1.474;2023-01-29T09:21:31;102086.41;;;6.47;82.58
55755;BME280;41674;52.290;-1.474;2023-01-29T09:24:01;102089.28;;;5.86;84.44
55755;BME280;41674;52.290;-1.474;2023-01-29T09:26:32;102088.72;;;5.81;84.85
55755;BME280;41674;52.290;-1.474;2023-01-29T09:29:01;102091.17;;;4.99;91.79
55755;BME280;41674;52.290;-1.474;2023-01-29T09:31:31;102089.78;;;4.66;93.98
55755;BME280;41674;52.290;-1.474;2023-01-29T09:34:01;102090.82;;;5.53;90.31
55755;BME280;41674;52.290;-1.474;2023-01-29T09:36:32;102086.49;;;4.75;92.33
55755;BME280;41674;52.290;-1.474;2023-01-29T09:39:01;102087.78;;;5.01;92.97
55755;BME280;41674;52.290;-1.474;2023-01-29T09:41:39;102087.30;;;5.10;92.88
55755;BME280;41674;52.290;-1.474;2023-01-29T09:44:01;102082.09;;;5.73;92.86
55755;BME280;41674;52.290;-1.474;2023-01-29T09:46:34;102072.82;;;5.49;93.87
55755;BME280;41674;52.290;-1.474;2023-01-29T09:49:02;102067.97;;;4.81;97.65
55755;BME280;41674;52.290;-1.474;2023-01-29T09:51:29;102065.43;;;4.59;99.07
55755;BME280;41674;52.290;-1.474;2023-01-29T09:54:05;102059.58;;;4.71;97.62
55755;BME280;41674;52.290;-1.474;2023-01-29T09:56:25;102058.84;;;5.98;94.93
55755;BME280;41674;52.290;-1.474;2023-01-29T09:58:57;102059.67;;;5.70;94.08
55755;BME280;41674;52.290;-1.474;2023-01-29T10:01:32;102054.56;;;4.93;97.86
55755;BME280;41674;52.290;-1.474;2023-01-29T10:04:05;102053.60;;;4.63;100.00
55755;BME280;41674;52.290;-1.474;2023-01-29T10:06:31;102050.43;;;4.75;100.00
55755;BME280;41674;52.290;-1.474;2023-01-29T10:09:08;102056.65;;;4.43;100.00
55755;BME280;41674;52.290;-1.474;2023-01-29T10:11:31;102057.63;;;4.09;100.00
55755;BME280;41674;52.290;-1.474;2023-01-29T10:14:00;102051.11;;;3.96;100.00
55755;BME280;41674;52.290;-1.474;2023-01-29T10:16:34;102051.58;;;4.00;100.00
55755;BME280;41674;52.290;-1.474;2023-01-29T10:19:17;102050.70;;;4.42;100.00
55755;BME280;41674;52.290;-1.474;2023-01-29T10:21:33;102052.40;;;4.11;100.00
55755;BME280;41674;52.290;-1.474;2023-01-29T10:23:53;102047.60;;;4.03;100.00
55755;BME280;41674;52.290;-1.474;2023-01-29T10:26:23;102040.09;;;4.45;100.00
55755;BME280;41674;52.290;-1.474;2023-01-29T10:28:51;102041.37;;;4.06;100.00
55755;BME280;41674;52.290;-1.474;2023-01-29T10:31:21;102040.92;;;4.22;100.00
55755;BME280;41674;52.290;-1.474;2023-01-29T10:33:51;102035.00;;;4.73;100.00
55755;BME280;41674;52.290;-1.474;2023-01-29T10:36:21;102034.61;;;5.54;99.46
55755;BME280;41674;52.290;-1.474;2023-01-29T10:38:48;102029.28;;;4.78;100.00
55755;BME280;41674;52.290;-1.474;2023-01-29T10:41:27;102024.55;;;5.08;100.00
55755;BME280;41674;52.290;-1.474;2023-01-29T10:43:54;102022.89;;;4.55;100.00
55755;BME280;41674;52.290;-1.474;2023-01-29T10:46:24;102019.17;;;5.02;100.00
55755;BME280;41674;52.290;-1.474;2023-01-29T10:48:53;102016.52;;;6.01;99.73
55755;BME280;41674;52.290;-1.474;2023-01-29T10:51:24;102011.87;;;6.06;98.30
55755;BME280;41674;52.290;-1.474;2023-01-29T10:53:51;102014.29;;;6.32;95.81
55755;BME280;41674;52.290;-1.474;2023-01-29T10:56:23;102006.21;;;6.42;94.64
55755;BME280;41674;52.290;-1.474;2023-01-29T10:58:47;102003.67;;;6.19;95.05
55755;BME280;41674;52.290;-1.474;2023-01-29T11:01:12;102000.59;;;4.84;100.00
55755;BME280;41674;52.290;-1.474;2023-01-29T11:03:41;101988.48;;;5.96;96.29
55755;BME280;41674;52.290;-1.474;2023-01-29T11:06:15;101997.09;;;5.54;100.00
55755;BME280;41674;52.290;-1.474;2023-01-29T11:08:45;101990.31;;;5.40;100.00
55755;BME280;41674;52.290;-1.474;2023-01-29T11:11:12;101990.16;;;6.07;99.44
55755;BME280;41674;52.290;-1.474;2023-01-29T11:13:41;101988.37;;;5.73;100.00
55755;BME280;41674;52.290;-1.474;2023-01-29T11:16:08;101985.47;;;5.49;100.00
55755;BME280;41674;52.290;-1.474;2023-01-29T11:18:49;101982.67;;;5.55;100.00
55755;BME280;41674;52.290;-1.474;2023-01-29T11:21:07;101982.63;;;5.63;100.00
55755;BME280;41674;52.290;-1.474;2023-01-29T11:23:36;101980.08;;;5.78;100.00
55755;BME280;41674;52.290;-1.474;2023-01-29T11:26:07;101975.55;;;5.70;100.00
55755;BME280;41674;52.290;-1.474;2023-01-29T11:28:37;101967.37;;;5.54;100.00
55755;BME280;41674;52.290;-1.474;2023-01-29T11:31:14;101961.15;;;5.24;100.00
55755;BME280;41674;52.290;-1.474;2023-01-29T11:33:35;101957.39;;;5.68;100.00
55755;BME280;41674;52.290;-1.474;2023-01-29T11:38:33;101949.33;;;5.79;100.00
55755;BME280;41674;52.290;-1.474;2023-01-29T11:41:05;101943.60;;;6.29;100.00
55755;BME280;41674;52.290;-1.474;2023-01-29T11:46:03;101930.47;;;5.54;100.00
55755;BME280;41674;52.290;-1.474;2023-01-29T11:48:39;101924.49;;;5.41;100.00
55755;BME280;41674;52.290;-1.474;2023-01-29T11:51:02;101918.88;;;6.10;100.00
55755;BME280;41674;52.290;-1.474;2023-01-29T11:53:36;101911.65;;;5.21;100.00
55755;BME280;41674;52.290;-1.474;2023-01-29T11:56:03;101906.37;;;5.72;100.00
55755;BME280;41674;52.290;-1.474;2023-01-29T12:01:00;101883.71;;;5.98;100.00
55755;BME280;41674;52.290;-1.474;2023-01-29T12:03:34;101877.79;;;5.52;100.00
55755;BME280;41674;52.290;-1.474;2023-01-29T12:06:01;101874.73;;;5.56;100.00
55755;BME280;41674;52.290;-1.474;2023-01-29T12:08:34;101866.18;;;6.21;100.00
55755;BME280;41674;52.290;-1.474;2023-01-29T12:11:07;101859.60;;;6.98;96.54
55755;BME280;41674;52.290;-1.474;2023-01-29T12:13:28;101854.39;;;6.92;95.76
55755;BME280;41674;52.290;-1.474;2023-01-29T12:16:11;101846.84;;;5.99;100.00
55755;BME280;41674;52.290;-1.474;2023-01-29T12:18:31;101841.29;;;5.90;99.71
55755;BME280;41674;52.290;-1.474;2023-01-29T12:21:00;101826.62;;;6.06;98.35
55755;BME280;41674;52.290;-1.474;2023-01-29T12:23:33;101817.62;;;6.32;98.02
55755;BME280;41674;52.290;-1.474;2023-01-29T12:26:00;101822.77;;;5.93;97.97
55755;BME280;41674;52.290;-1.474;2023-01-29T12:28:36;101819.69;;;6.20;98.63
55755;BME280;41674;52.290;-1.474;2023-01-29T12:31:06;101815.86;;;5.79;100.00
55755;BME280;41674;52.290;-1.474;2023-01-29T12:33:33;101812.11;;;5.73;100.00
55755;BME280;41674;52.290;-1.474;2023-01-29T12:36:01;101806.81;;;5.41;100.00
55755;BME280;41674;52.290;-1.474;2023-01-29T12:38:25;101810.36;;;6.11;100.00
55755;BME280;41674;52.290;-1.474;2023-01-29T12:40:57;101800.74;;;5.60;100.00
55755;BME280;41674;52.290;-1.474;2023-01-29T12:43:31;101801.40;;;5.83;100.00
55755;BME280;41674;52.290;-1.474;2023-01-29T12:45:54;101800.53;;;6.03;100.00
55755;BME280;41674;52.290;-1.474;2023-01-29T12:48:26;101798.71;;;6.71;99.42
55755;BME280;41674;52.290;-1.474;2023-01-29T12:50:55;101797.34;;;7.07;97.15
55755;BME280;41674;52.290;-1.474;2023-01-29T12:53:27;101788.07;;;6.34;100.00
55755;BME280;41674;52.290;-1.474;2023-01-29T12:55:56;101796.33;;;6.01;100.00
55755;BME280;41674;52.290;-1.474;2023-01-29T12:58:24;101789.55;;;7.03;99.39
55755;BME280;41674;52.290;-1.474;2023-01-29T13:00:54;101780.40;;;6.38;100.00
55755;BME280;41674;52.290;-1.474;2023-01-29T13:03:24;101764.95;;;6.52;100.00
55755;BME280;41674;52.290;-1.474;2023-01-29T13:05:53;101767.59;;;6.46;100.00
55755;BME280;41674;52.290;-1.474;2023-01-29T13:08:25;101765.95;;;6.49;99.12
55755;BME280;41674;52.290;-1.474;2023-01-29T13:10:52;101765.87;;;6.53;98.43
55755;BME280;41674;52.290;-1.474;2023-01-29T13:13:25;101762.74;;;6.80;96.98
55755;BME280;41674;52.290;-1.474;2023-01-29T13:15:50;101767.91;;;5.88;99.72
55755;BME280;41674;52.290;-1.474;2023-01-29T13:18:31;101766.48;;;6.19;97.63
55755;BME280;41674;52.290;-1.474;2023-01-29T13:20:49;101760.29;;;6.26;99.18
55755;BME280;41674;52.290;-1.474;2023-01-29T13:23:20;101756.22;;;6.48;97.42